Time;durP1;ratioP1;P1;durP2;ratioP2;P2;SDS_P1;SDS_P2;PMS_P1;PMS_P2;Temp;Humidity;BMP_temperature;BMP_pressure;BME280_temperature;BME280_humidity;BME280_pressure;Samples;Min_cycle;Max_cycle;Signal;HPM_P1;HPM_P2
2022/07/19 00:02:02;;;;;;;7.03;4.45;;;;;;;;;;4882341;29;20124;-73
2022/07/19 00:04:27;;;;;;;9.63;3.92;;;;;;;;;;4886503;29;20112;-75
2022/07/19 00:06:55;;;;;;;8.15;3.95;;;;;;;;;;4883851;29;20404;-78
2022/07/19 00:09:21;;;;;;;6.90;4.18;;;;;;;;;;4883597;29;20114;-75
2022/07/19 00:11:48;;;;;;;5.75;4.32;;;;;;;;;;4885268;29;21096;-75
2022/07/19 00:14:14;;;;;;;6.60;4.00;;;;;;;;;;4886631;29;20519;-75
2022/07/19 00:16:40;;;;;;;7.05;3.88;;;;;;;;;;4887478;29;20068;-73
2022/07/19 00:19:06;;;;;;;7.35;4.47;;;;;;;;;;4866589;29;20506;-75
2022/07/19 00:21:32;;;;;;;6.28;4.00;;;;;;;;;;4884686;29;20064;-74
2022/07/19 00:24:00;;;;;;;5.80;3.97;;;;;;;;;;4887915;29;20423;-73
2022/07/19 00:26:29;;;;;;;8.35;4.07;;;;;;;;;;4871450;29;20059;-73
2022/07/19 00:28:56;;;;;;;7.85;4.03;;;;;;;;;;4885992;29;20048;-75
2022/07/19 00:31:24;;;;;;;9.30;3.78;;;;;;;;;;4885836;29;20510;-74
2022/07/19 00:33:51;;;;;;;5.43;3.90;;;;;;;;;;4884478;29;20041;-74
2022/07/19 00:36:18;;;;;;;8.35;4.10;;;;;;;;;;4884995;29;20072;-73
2022/07/19 00:38:44;;;;;;;5.22;3.75;;;;;;;;;;4886967;29;20111;-73
2022/07/19 00:41:10;;;;;;;6.53;3.97;;;;;;;;;;4886341;29;20400;-75
2022/07/19 00:43:40;;;;;;;5.13;3.65;;;;;;;;;;4884220;29;20056;-73
2022/07/19 00:46:14;;;;;;;5.45;3.80;;;;;;;;;;4886333;29;20143;-75
2022/07/19 00:48:41;;;;;;;6.05;3.75;;;;;;;;;;4883656;29;20127;-74
2022/07/19 00:51:09;;;;;;;5.30;3.70;;;;;;;;;;4883862;29;20061;-73
2022/07/19 00:53:36;;;;;;;5.88;3.90;;;;;;;;;;4885055;29;20551;-73
2022/07/19 00:56:07;;;;;;;8.57;3.92;;;;;;;;;;4885305;29;20526;-72
2022/07/19 00:58:34;;;;;;;7.75;3.75;;;;;;;;;;4888046;29;20528;-73
2022/07/19 01:01:01;;;;;;;4.38;3.40;;;;;;;;;;4890007;29;20478;-74
2022/07/19 01:03:27;;;;;;;6.78;4.00;;;;;;;;;;4886588;29;20056;-74
2022/07/19 01:05:53;;;;;;;6.00;3.80;;;;;;;;;;4889891;29;20049;-73
2022/07/19 01:08:19;;;;;;;7.18;3.83;;;;;;;;;;4890453;29;20049;-76
2022/07/19 01:10:45;;;;;;;4.50;3.88;;;;;;;;;;4890235;29;20057;-72
2022/07/19 01:13:14;;;;;;;8.75;4.15;;;;;;;;;;4889748;29;20479;-75
2022/07/19 01:15:41;;;;;;;7.25;4.43;;;;;;;;;;4892485;29;20048;-72
2022/07/19 01:18:08;;;;;;;8.73;3.88;;;;;;;;;;4892388;29;20072;-72
2022/07/19 01:20:34;;;;;;;7.30;4.35;;;;;;;;;;4893374;29;20053;-76
2022/07/19 01:23:00;;;;;;;6.88;4.45;;;;;;;;;;4889252;29;20163;-73
2022/07/19 01:25:34;;;;;;;8.80;4.28;;;;;;;;;;4890428;29;20048;-73
2022/07/19 01:28:00;;;;;;;6.80;4.22;;;;;;;;;;4892438;29;20514;-73
2022/07/19 01:30:27;;;;;;;5.70;4.25;;;;;;;;;;4891005;29;20053;-73
2022/07/19 01:32:54;;;;;;;5.70;3.85;;;;;;;;;;4888679;29;20055;-72
2022/07/19 01:35:20;;;;;;;5.32;4.25;;;;;;;;;;4889858;29;20045;-72
2022/07/19 01:37:47;;;;;;;5.95;3.90;;;;;;;;;;4886345;29;20136;-75
2022/07/19 01:40:14;;;;;;;6.38;3.80;;;;;;;;;;4888252;29;20295;-74
2022/07/19 01:42:41;;;;;;;5.97;4.18;;;;;;;;;;4889333;29;20103;-73
2022/07/19 01:45:09;;;;;;;9.27;4.90;;;;;;;;;;4890213;29;20184;-74
2022/07/19 01:47:35;;;;;;;7.78;5.25;;;;;;;;;;4889733;29;20514;-73
2022/07/19 01:50:02;;;;;;;10.20;5.75;;;;;;;;;;4888536;29;20437;-77
2022/07/19 01:52:28;;;;;;;11.60;5.75;;;;;;;;;;4879937;29;20502;-72
2022/07/19 01:54:54;;;;;;;9.63;5.95;;;;;;;;;;4887351;29;20638;-74
2022/07/19 01:57:20;;;;;;;8.13;6.05;;;;;;;;;;4888718;29;20047;-75
2022/07/19 01:59:46;;;;;;;9.00;5.57;;;;;;;;;;4890415;29;20074;-72
2022/07/19 02:02:12;;;;;;;9.45;5.88;;;;;;;;;;4886745;29;20399;-75
2022/07/19 02:04:38;;;;;;;14.35;5.80;;;;;;;;;;4889999;29;20124;-73
2022/07/19 02:07:04;;;;;;;13.32;5.07;;;;;;;;;;4891981;29;20557;-74
2022/07/19 02:09:29;;;;;;;10.25;5.95;;;;;;;;;;4889250;29;20108;-73
2022/07/19 02:11:55;;;;;;;10.70;5.70;;;;;;;;;;4887769;29;20416;-74
2022/07/19 02:14:21;;;;;;;15.02;5.85;;;;;;;;;;4888662;29;20056;-73
2022/07/19 02:16:47;;;;;;;7.65;5.65;;;;;;;;;;4890167;29;20059;-76
2022/07/19 02:19:13;;;;;;;12.20;5.70;;;;;;;;;;4877246;29;20483;-72
2022/07/19 02:21:39;;;;;;;7.68;4.97;;;;;;;;;;4885851;29;20710;-73
2022/07/19 02:24:07;;;;;;;13.68;5.68;;;;;;;;;;4887263;29;20139;-74
2022/07/19 02:26:33;;;;;;;12.32;5.55;;;;;;;;;;4888522;29;20053;-71
2022/07/19 02:28:59;;;;;;;10.27;5.70;;;;;;;;;;4890437;29;20060;-73
2022/07/19 02:31:25;;;;;;;9.25;5.47;;;;;;;;;;4889610;29;20128;-74
2022/07/19 02:33:51;;;;;;;9.95;5.20;;;;;;;;;;4891529;29;20135;-75
2022/07/19 02:36:17;;;;;;;9.85;5.25;;;;;;;;;;4892537;29;20056;-72
2022/07/19 02:38:44;;;;;;;9.35;4.85;;;;;;;;;;4890184;29;20049;-75
2022/07/19 02:41:10;;;;;;;8.13;5.22;;;;;;;;;;4891874;29;20049;-73
2022/07/19 02:43:35;;;;;;;10.15;5.80;;;;;;;;;;4884771;29;20482;-75
2022/07/19 02:46:02;;;;;;;8.23;5.32;;;;;;;;;;4889312;29;20084;-74
2022/07/19 02:48:28;;;;;;;8.80;5.57;;;;;;;;;;4887612;29;20403;-73
2022/07/19 02:50:54;;;;;;;7.18;5.03;;;;;;;;;;4887595;29;20653;-74
2022/07/19 02:53:20;;;;;;;8.18;5.38;;;;;;;;;;4886882;29;20100;-73
2022/07/19 02:55:46;;;;;;;11.68;5.47;;;;;;;;;;4887807;29;20052;-73
2022/07/19 02:58:12;;;;;;;12.98;5.65;;;;;;;;;;4883815;29;20055;-73
2022/07/19 03:00:38;;;;;;;9.30;5.40;;;;;;;;;;4887730;29;20056;-74
2022/07/19 03:05:49;;;;;;;6.57;5.20;;;;;;;;;;4886464;29;20063;-72
2022/07/19 03:08:15;;;;;;;8.15;5.55;;;;;;;;;;4890771;29;20070;-73
2022/07/19 03:10:41;;;;;;;8.15;5.32;;;;;;;;;;4884427;29;20472;-73
2022/07/19 03:13:08;;;;;;;10.13;5.25;;;;;;;;;;4882230;29;21299;-73
2022/07/19 03:15:35;;;;;;;7.95;5.53;;;;;;;;;;4887077;29;20517;-74
2022/07/19 03:18:01;;;;;;;6.50;5.22;;;;;;;;;;4888170;29;20148;-73
2022/07/19 03:20:27;;;;;;;10.13;5.70;;;;;;;;;;4886688;29;20192;-72
2022/07/19 03:22:53;;;;;;;8.80;5.60;;;;;;;;;;4884753;29;20515;-73
2022/07/19 03:25:19;;;;;;;7.82;5.68;;;;;;;;;;4887508;29;20060;-73
2022/07/19 03:27:45;;;;;;;10.52;6.40;;;;;;;;;;4884937;29;20102;-72
2022/07/19 03:30:11;;;;;;;11.32;6.18;;;;;;;;;;4883185;29;20573;-73
2022/07/19 03:32:37;;;;;;;10.13;6.20;;;;;;;;;;4885783;29;20048;-74
2022/07/19 03:35:03;;;;;;;14.02;6.35;;;;;;;;;;4885648;29;20060;-73
2022/07/19 03:37:29;;;;;;;14.60;6.47;;;;;;;;;;4886209;29;20080;-74
2022/07/19 03:39:55;;;;;;;11.65;6.10;;;;;;;;;;4887611;29;20096;-74
2022/07/19 03:42:21;;;;;;;9.10;6.05;;;;;;;;;;4886998;29;20054;-75
2022/07/19 03:44:46;;;;;;;8.55;6.43;;;;;;;;;;4888709;29;20048;-71
2022/07/19 03:47:12;;;;;;;13.32;6.38;;;;;;;;;;4888226;29;20055;-73
2022/07/19 03:49:38;;;;;;;10.38;6.25;;;;;;;;;;4885676;29;20116;-76
2022/07/19 03:52:04;;;;;;;10.07;6.40;;;;;;;;;;4886323;29;20563;-75
2022/07/19 03:54:30;;;;;;;10.45;6.32;;;;;;;;;;4889232;29;20045;-73
2022/07/19 03:56:56;;;;;;;11.65;6.38;;;;;;;;;;4886399;29;20160;-73
2022/07/19 03:59:25;;;;;;;12.77;6.45;;;;;;;;;;4891317;29;20049;-74
2022/07/19 04:01:51;;;;;;;14.45;5.90;;;;;;;;;;4883511;29;20052;-74
2022/07/19 04:04:17;;;;;;;12.95;6.30;;;;;;;;;;4888262;29;20115;-76
2022/07/19 04:06:43;;;;;;;9.73;6.00;;;;;;;;;;4884187;29;20045;-73
2022/07/19 04:09:09;;;;;;;10.65;6.40;;;;;;;;;;4887077;29;20152;-72
2022/07/19 04:11:35;;;;;;;10.40;6.18;;;;;;;;;;4887223;29;20053;-72
2022/07/19 04:14:57;;;;;;;10.98;6.20;;;;;;;;;;4886670;29;20091;-73
2022/07/19 04:17:23;;;;;;;11.20;6.05;;;;;;;;;;4884886;29;20044;-72
2022/07/19 04:19:49;;;;;;;10.90;5.90;;;;;;;;;;4885102;29;20044;-71
2022/07/19 04:22:15;;;;;;;8.70;5.53;;;;;;;;;;4885823;29;20051;-73
2022/07/19 04:24:41;;;;;;;7.35;5.20;;;;;;;;;;4888883;29;20060;-74
2022/07/19 04:27:07;;;;;;;9.15;5.10;;;;;;;;;;4886722;29;20072;-73
2022/07/19 04:29:32;;;;;;;8.95;5.35;;;;;;;;;;4889674;29;20052;-75
2022/07/19 04:31:58;;;;;;;8.40;5.00;;;;;;;;;;4889937;29;20365;-72
2022/07/19 04:34:24;;;;;;;9.10;5.32;;;;;;;;;;4889940;29;20045;-74
2022/07/19 04:36:50;;;;;;;7.97;5.10;;;;;;;;;;4887841;29;20428;-74
2022/07/19 04:39:16;;;;;;;7.65;5.63;;;;;;;;;;4891155;29;20055;-74
2022/07/19 04:41:42;;;;;;;7.85;5.13;;;;;;;;;;4892635;29;20048;-72
2022/07/19 04:44:08;;;;;;;9.20;6.32;;;;;;;;;;4893705;29;20061;-73
2022/07/19 04:46:34;;;;;;;9.05;5.88;;;;;;;;;;4892755;29;20901;-76
2022/07/19 04:49:00;;;;;;;11.88;5.70;;;;;;;;;;4890047;29;20490;-76
2022/07/19 04:51:25;;;;;;;9.32;6.03;;;;;;;;;;4892640;29;20447;-75
2022/07/19 04:53:51;;;;;;;8.40;5.88;;;;;;;;;;4891199;29;20217;-76
2022/07/19 04:56:17;;;;;;;8.02;6.00;;;;;;;;;;4882586;29;20063;-74
2022/07/19 04:58:43;;;;;;;9.85;6.00;;;;;;;;;;4893559;29;20079;-71
2022/07/19 05:01:09;;;;;;;10.13;6.03;;;;;;;;;;4892411;29;20590;-70
2022/07/19 05:03:35;;;;;;;11.15;6.05;;;;;;;;;;4889619;29;20052;-71
2022/07/19 05:06:00;;;;;;;11.38;5.75;;;;;;;;;;4890046;29;20438;-71
2022/07/19 05:08:26;;;;;;;9.57;5.28;;;;;;;;;;4889029;29;20104;-71
2022/07/19 05:10:52;;;;;;;9.45;5.93;;;;;;;;;;4888911;29;20238;-72
2022/07/19 05:13:18;;;;;;;12.10;5.75;;;;;;;;;;4889476;29;20190;-70
2022/07/19 05:15:44;;;;;;;11.68;6.07;;;;;;;;;;4888273;29;20045;-71
2022/07/19 05:18:10;;;;;;;8.68;6.00;;;;;;;;;;4889389;29;20080;-72
2022/07/19 05:20:36;;;;;;;13.65;7.40;;;;;;;;;;4892109;29;20067;-71
2022/07/19 05:23:02;;;;;;;12.30;7.57;;;;;;;;;;4889724;29;20076;-73
2022/07/19 05:25:28;;;;;;;15.68;8.50;;;;;;;;;;4885253;29;20143;-71
2022/07/19 05:27:56;;;;;;;15.27;8.00;;;;;;;;;;4888326;29;20064;-71
2022/07/19 05:30:22;;;;;;;18.50;8.70;;;;;;;;;;4892674;29;20063;-70
2022/07/19 05:32:48;;;;;;;25.52;9.73;;;;;;;;;;4890354;29;20045;-69
2022/07/19 05:35:14;;;;;;;17.58;8.68;;;;;;;;;;4891616;29;20048;-73
2022/07/19 05:37:40;;;;;;;18.92;8.00;;;;;;;;;;4889554;29;20159;-70
2022/07/19 05:40:07;;;;;;;15.95;9.43;;;;;;;;;;4888978;29;20222;-75
2022/07/19 05:42:32;;;;;;;18.02;8.98;;;;;;;;;;4885491;29;20181;-76
2022/07/19 05:44:58;;;;;;;14.77;9.00;;;;;;;;;;4887741;29;20049;-72
2022/07/19 05:47:24;;;;;;;11.63;7.50;;;;;;;;;;4884938;29;20078;-70
2022/07/19 05:49:50;;;;;;;15.15;6.90;;;;;;;;;;4887684;29;20104;-76
2022/07/19 05:52:16;;;;;;;13.50;6.45;;;;;;;;;;4891810;29;20064;-76
2022/07/19 05:54:42;;;;;;;12.05;7.00;;;;;;;;;;4891902;29;20495;-74
2022/07/19 05:57:07;;;;;;;9.55;6.85;;;;;;;;;;4894623;29;20144;-71
2022/07/19 05:59:35;;;;;;;14.10;6.90;;;;;;;;;;4891724;29;20051;-66
2022/07/19 06:02:02;;;;;;;14.20;7.00;;;;;;;;;;4889172;29;20048;-69
2022/07/19 06:04:27;;;;;;;9.82;5.43;;;;;;;;;;4884717;29;20108;-76
2022/07/19 06:06:53;;;;;;;9.27;5.53;;;;;;;;;;4894997;29;20067;-73
2022/07/19 06:09:20;;;;;;;7.93;5.60;;;;;;;;;;4898636;29;20281;-76
2022/07/19 06:11:45;;;;;;;20.08;6.57;;;;;;;;;;4899673;29;20403;-73
2022/07/19 06:14:12;;;;;;;9.48;6.20;;;;;;;;;;4896903;29;20048;-75
2022/07/19 06:16:40;;;;;;;8.57;5.45;;;;;;;;;;4895083;29;20060;-75
2022/07/19 06:19:07;;;;;;;11.45;5.15;;;;;;;;;;4892855;29;20059;-75
2022/07/19 06:21:33;;;;;;;6.38;4.93;;;;;;;;;;4897668;29;20052;-76
2022/07/19 06:23:59;;;;;;;7.63;4.90;;;;;;;;;;4898064;29;20044;-75
2022/07/19 06:26:29;;;;;;;9.57;5.10;;;;;;;;;;4895886;29;20056;-76
2022/07/19 06:28:55;;;;;;;12.20;5.60;;;;;;;;;;4895015;29;20040;-76
2022/07/19 06:31:21;;;;;;;13.50;6.13;;;;;;;;;;4891592;29;20048;-72
2022/07/19 06:33:49;;;;;;;9.77;5.38;;;;;;;;;;4892970;29;20452;-77
2022/07/19 06:36:16;;;;;;;7.85;4.90;;;;;;;;;;4893674;29;20059;-78
2022/07/19 06:38:42;;;;;;;7.45;4.95;;;;;;;;;;4894824;29;20069;-74
2022/07/19 06:41:10;;;;;;;11.20;5.05;;;;;;;;;;4894184;29;20071;-72
2022/07/19 06:43:36;;;;;;;9.95;5.40;;;;;;;;;;4891712;29;20436;-73
2022/07/19 06:46:02;;;;;;;11.77;5.40;;;;;;;;;;4877515;29;20044;-75
2022/07/19 06:48:28;;;;;;;10.77;5.50;;;;;;;;;;4887380;29;20044;-77
2022/07/19 06:50:54;;;;;;;11.57;5.43;;;;;;;;;;4892583;29;20108;-73
2022/07/19 06:53:20;;;;;;;7.88;4.97;;;;;;;;;;4894936;29;20048;-73
2022/07/19 06:55:45;;;;;;;16.20;5.60;;;;;;;;;;4878148;29;20044;-74
2022/07/19 06:58:12;;;;;;;9.55;5.55;;;;;;;;;;4893976;29;20120;-75
2022/07/19 07:00:38;;;;;;;11.75;5.75;;;;;;;;;;4890659;29;20069;-73
2022/07/19 07:03:04;;;;;;;14.13;5.18;;;;;;;;;;4890583;29;20108;-74
2022/07/19 07:05:30;;;;;;;11.82;5.15;;;;;;;;;;4890975;29;20056;-75
2022/07/19 07:07:56;;;;;;;9.45;5.47;;;;;;;;;;4877221;29;20084;-74
2022/07/19 07:10:22;;;;;;;12.50;5.15;;;;;;;;;;4897187;29;20088;-72
2022/07/19 07:12:49;;;;;;;11.85;5.22;;;;;;;;;;4889796;29;20414;-74
2022/07/19 07:15:15;;;;;;;13.65;5.60;;;;;;;;;;4894998;29;20048;-74
2022/07/19 07:17:42;;;;;;;12.10;4.47;;;;;;;;;;4895055;29;20487;-74
2022/07/19 07:20:09;;;;;;;8.80;5.10;;;;;;;;;;4895434;29;20088;-74
2022/07/19 07:22:35;;;;;;;9.38;4.47;;;;;;;;;;4893660;29;20048;-72
2022/07/19 07:25:02;;;;;;;12.40;4.85;;;;;;;;;;4881939;29;20057;-75
2022/07/19 07:27:28;;;;;;;10.07;4.90;;;;;;;;;;4885862;29;20063;-73
2022/07/19 07:29:54;;;;;;;12.13;5.20;;;;;;;;;;4890410;29;20049;-72
2022/07/19 07:32:20;;;;;;;9.95;4.70;;;;;;;;;;4892720;29;20064;-74
2022/07/19 07:34:46;;;;;;;11.55;5.38;;;;;;;;;;4893780;29;20048;-74
2022/07/19 07:37:12;;;;;;;9.57;4.65;;;;;;;;;;4891458;29;20045;-76
2022/07/19 07:39:38;;;;;;;8.48;4.25;;;;;;;;;;4887791;29;20455;-72
2022/07/19 07:42:04;;;;;;;10.55;4.53;;;;;;;;;;4889532;29;20217;-72
2022/07/19 07:44:31;;;;;;;12.43;4.72;;;;;;;;;;4889701;29;20116;-73
2022/07/19 07:46:56;;;;;;;7.68;4.30;;;;;;;;;;4893016;29;20049;-72
2022/07/19 07:49:23;;;;;;;14.43;4.50;;;;;;;;;;4891868;29;20059;-70
2022/07/19 07:51:48;;;;;;;8.52;4.40;;;;;;;;;;4892744;29;20060;-69
2022/07/19 07:54:14;;;;;;;8.27;4.55;;;;;;;;;;4896947;29;20052;-71
2022/07/19 07:56:41;;;;;;;10.38;4.15;;;;;;;;;;4894483;29;20053;-68
2022/07/19 07:59:06;;;;;;;5.80;4.13;;;;;;;;;;4896046;29;20044;-72
2022/07/19 08:01:32;;;;;;;4.65;3.97;;;;;;;;;;4895896;29;20070;-72
2022/07/19 08:03:58;;;;;;;6.55;3.25;;;;;;;;;;4889075;29;20411;-70
2022/07/19 08:06:24;;;;;;;7.03;4.05;;;;;;;;;;4888868;29;20107;-72
2022/07/19 08:08:50;;;;;;;4.90;3.60;;;;;;;;;;4888191;29;20400;-70
2022/07/19 08:11:16;;;;;;;7.93;4.22;;;;;;;;;;4892881;29;20063;-74
2022/07/19 08:13:42;;;;;;;5.40;4.00;;;;;;;;;;4893911;29;20040;-73
2022/07/19 08:16:07;;;;;;;11.80;4.22;;;;;;;;;;4886943;29;20072;-75
2022/07/19 08:18:33;;;;;;;8.60;4.10;;;;;;;;;;4886337;29;20063;-73
2022/07/19 08:20:59;;;;;;;8.73;4.32;;;;;;;;;;4894488;29;20424;-76
2022/07/19 08:23:25;;;;;;;7.10;3.80;;;;;;;;;;4893557;29;20069;-76
2022/07/19 08:25:51;;;;;;;5.35;3.70;;;;;;;;;;4888940;29;20503;-72
2022/07/19 08:28:17;;;;;;;5.32;3.63;;;;;;;;;;4891778;29;20049;-75
2022/07/19 08:30:43;;;;;;;11.73;3.95;;;;;;;;;;4889954;29;20056;-71
2022/07/19 08:33:09;;;;;;;6.22;3.85;;;;;;;;;;4889878;29;20391;-69
2022/07/19 08:35:36;;;;;;;7.15;3.88;;;;;;;;;;4890073;29;20044;-69
2022/07/19 08:38:02;;;;;;;7.47;4.20;;;;;;;;;;4888430;29;20052;-71
2022/07/19 08:40:29;;;;;;;6.65;3.75;;;;;;;;;;4890147;29;20065;-72
2022/07/19 08:42:58;;;;;;;5.13;3.75;;;;;;;;;;4889354;29;20143;-73
2022/07/19 08:45:25;;;;;;;8.57;4.25;;;;;;;;;;4891186;29;20040;-71
2022/07/19 08:47:53;;;;;;;8.00;4.07;;;;;;;;;;4888012;29;20410;-73
2022/07/19 08:50:19;;;;;;;10.45;4.22;;;;;;;;;;4884242;29;20101;-72
2022/07/19 08:52:46;;;;;;;13.60;4.63;;;;;;;;;;4891920;29;20459;-73
2022/07/19 08:55:13;;;;;;;11.82;4.70;;;;;;;;;;4888111;29;20057;-75
2022/07/19 08:57:57;;;;;;;11.40;4.30;;;;;;;;;;4886759;29;20059;-75
2022/07/19 09:00:27;;;;;;;13.05;4.00;;;;;;;;;;4884761;29;20109;-75
2022/07/19 09:02:59;;;;;;;11.30;3.83;;;;;;;;;;4900478;29;20068;-75
2022/07/19 09:05:26;;;;;;;10.77;4.10;;;;;;;;;;4894064;29;20108;-73
2022/07/19 09:08:04;;;;;;;9.60;4.18;;;;;;;;;;4889654;29;20076;-73
2022/07/19 09:10:32;;;;;;;14.80;5.93;;;;;;;;;;4874236;29;20084;-73
2022/07/19 09:13:15;;;;;;;14.38;4.93;;;;;;;;;;4889636;29;20368;-72
2022/07/19 09:15:45;;;;;;;22.05;4.80;;;;;;;;;;4894406;29;20078;-74
2022/07/19 09:18:17;;;;;;;17.40;5.70;;;;;;;;;;4893737;29;20061;-72
2022/07/19 09:20:44;;;;;;;11.73;4.60;;;;;;;;;;4896316;29;20087;-75
2022/07/19 09:23:12;;;;;;;14.18;4.47;;;;;;;;;;4894458;29;20056;-71
2022/07/19 09:25:48;;;;;;;8.52;4.53;;;;;;;;;;4890211;29;20053;-73
2022/07/19 09:28:15;;;;;;;8.98;4.50;;;;;;;;;;4890072;29;20548;-74
2022/07/19 09:30:43;;;;;;;12.98;4.30;;;;;;;;;;4893249;29;20059;-73
2022/07/19 09:33:18;;;;;;;12.55;5.28;;;;;;;;;;4893134;29;20041;-73
2022/07/19 09:35:47;;;;;;;14.10;4.88;;;;;;;;;;4891234;29;20539;-73
2022/07/19 09:38:14;;;;;;;10.65;4.78;;;;;;;;;;4875662;29;20143;-71
2022/07/19 09:40:40;;;;;;;10.77;4.70;;;;;;;;;;4894316;29;20064;-73
2022/07/19 09:43:06;;;;;;;10.68;4.47;;;;;;;;;;4893353;29;20370;-73
2022/07/19 09:45:32;;;;;;;8.35;4.45;;;;;;;;;;4897401;29;20139;-73
2022/07/19 09:48:00;;;;;;;10.65;4.97;;;;;;;;;;4896471;29;20052;-74
2022/07/19 09:50:26;;;;;;;14.98;4.63;;;;;;;;;;4897808;29;20414;-74
2022/07/19 09:52:52;;;;;;;8.45;5.65;;;;;;;;;;4895516;29;20052;-75
2022/07/19 09:55:19;;;;;;;8.93;4.72;;;;;;;;;;4892894;29;20055;-73
2022/07/19 09:57:49;;;;;;;9.18;4.53;;;;;;;;;;4893373;29;20234;-73
2022/07/19 10:00:20;;;;;;;7.88;4.20;;;;;;;;;;4875939;29;21313;-73
2022/07/19 10:02:55;;;;;;;12.55;5.00;;;;;;;;;;4889814;29;20491;-73
2022/07/19 10:05:22;;;;;;;9.13;4.78;;;;;;;;;;4883977;29;20049;-73
2022/07/19 10:07:48;;;;;;;10.40;4.78;;;;;;;;;;4894839;29;20053;-74
2022/07/19 10:10:17;;;;;;;14.55;5.00;;;;;;;;;;4895371;29;20638;-72
2022/07/19 10:12:44;;;;;;;9.82;4.50;;;;;;;;;;4894634;29;20127;-72
2022/07/19 10:15:18;;;;;;;9.00;5.00;;;;;;;;;;4895579;29;20435;-73
2022/07/19 10:18:08;;;;;;;10.00;4.50;;;;;;;;;;4882748;29;20057;-73
2022/07/19 10:20:35;;;;;;;7.97;4.32;;;;;;;;;;4895271;29;20061;-74
2022/07/19 10:23:02;;;;;;;12.93;4.60;;;;;;;;;;4893515;29;20419;-74
2022/07/19 10:25:46;;;;;;;12.60;4.07;;;;;;;;;;4874772;29;20049;-73
2022/07/19 10:28:32;;;;;;;7.32;4.20;;;;;;;;;;4894738;29;20163;-72
2022/07/19 10:30:59;;;;;;;11.80;4.03;;;;;;;;;;4893934;29;20084;-73
2022/07/19 10:33:33;;;;;;;10.80;4.50;;;;;;;;;;4893675;29;20052;-73
2022/07/19 10:36:31;;;;;;;7.40;3.88;;;;;;;;;;4894221;29;20049;-71
2022/07/19 10:39:24;;;;;;;9.43;3.92;;;;;;;;;;4891489;29;20064;-72
2022/07/19 10:42:09;;;;;;;10.48;4.60;;;;;;;;;;4891165;29;20053;-75
2022/07/19 10:44:56;;;;;;;10.32;4.43;;;;;;;;;;4891537;29;20136;-73
2022/07/19 10:47:31;;;;;;;12.68;4.50;;;;;;;;;;4891303;29;20048;-72
2022/07/19 10:50:02;;;;;;;11.38;4.20;;;;;;;;;;4890450;29;20071;-73
2022/07/19 10:52:31;;;;;;;11.35;4.20;;;;;;;;;;4893939;29;20052;-77
2022/07/19 10:55:25;;;;;;;14.18;4.47;;;;;;;;;;4876502;29;20055;-73
2022/07/19 10:58:11;;;;;;;8.00;4.20;;;;;;;;;;4894394;29;20057;-72
2022/07/19 11:00:44;;;;;;;4.45;3.67;;;;;;;;;;4894688;29;20050;-73
2022/07/19 11:03:22;;;;;;;8.00;4.15;;;;;;;;;;4893186;29;20060;-71
2022/07/19 11:05:48;;;;;;;7.32;4.03;;;;;;;;;;4892185;29;20433;-73
2022/07/19 11:08:15;;;;;;;5.65;4.15;;;;;;;;;;4889408;29;20599;-71
2022/07/19 11:10:40;;;;;;;10.38;4.00;;;;;;;;;;4894987;29;20080;-72
2022/07/19 11:13:06;;;;;;;5.57;3.85;;;;;;;;;;4892415;29;20091;-73
2022/07/19 11:15:32;;;;;;;7.22;4.05;;;;;;;;;;4895198;29;20128;-75
2022/07/19 11:18:06;;;;;;;7.78;4.28;;;;;;;;;;4892825;29;20053;-73
2022/07/19 11:20:34;;;;;;;8.15;4.25;;;;;;;;;;4893778;29;20079;-73
2022/07/19 11:23:03;;;;;;;6.63;3.95;;;;;;;;;;4894152;29;20048;-73
2022/07/19 11:25:39;;;;;;;10.07;4.25;;;;;;;;;;4894525;29;20041;-74
2022/07/19 11:28:05;;;;;;;5.90;4.45;;;;;;;;;;4894705;29;20068;-72
2022/07/19 11:30:33;;;;;;;14.70;4.60;;;;;;;;;;4895069;29;20052;-73
2022/07/19 11:33:05;;;;;;;6.07;4.28;;;;;;;;;;4895017;29;20159;-76
2022/07/19 11:35:31;;;;;;;9.35;4.72;;;;;;;;;;4896020;29;20055;-75
2022/07/19 11:37:59;;;;;;;11.13;4.90;;;;;;;;;;4895087;29;20076;-74
2022/07/19 11:40:33;;;;;;;10.60;4.70;;;;;;;;;;4877990;29;20048;-73
2022/07/19 11:43:03;;;;;;;6.32;4.50;;;;;;;;;;4877982;29;20052;-71
2022/07/19 11:45:29;;;;;;;8.13;4.40;;;;;;;;;;4895709;29;20415;-74
2022/07/19 11:47:57;;;;;;;11.70;4.15;;;;;;;;;;4896925;29;20052;-70
2022/07/19 11:50:26;;;;;;;7.32;4.15;;;;;;;;;;4895194;29;20057;-73
2022/07/19 11:52:59;;;;;;;7.38;4.00;;;;;;;;;;4888769;29;20060;-73
2022/07/19 11:55:26;;;;;;;;;;;;;;;;;;4892323;29;20278;-75
2022/07/19 11:57:53;;;;;;;9.95;3.80;;;;;;;;;;4883499;29;20046;-72
2022/07/19 12:00:20;;;;;;;16.05;4.97;;;;;;;;;;4894501;29;20100;-73
2022/07/19 12:02:58;;;;;;;9.43;4.30;;;;;;;;;;4895917;29;20044;-72
2022/07/19 12:05:27;;;;;;;5.65;3.80;;;;;;;;;;4895206;29;20055;-72
2022/07/19 12:07:56;;;;;;;11.57;4.10;;;;;;;;;;4895638;29;20051;-72
2022/07/19 12:10:38;;;;;;;6.95;4.72;;;;;;;;;;4888322;29;20056;-73
2022/07/19 12:13:07;;;;;;;10.43;4.75;;;;;;;;;;4892829;29;20052;-74
2022/07/19 12:15:48;;;;;;;7.85;4.75;;;;;;;;;;4892189;29;20135;-72
2022/07/19 12:18:17;;;;;;;8.98;4.57;;;;;;;;;;4882555;29;20132;-72
2022/07/19 12:20:44;;;;;;;9.63;4.85;;;;;;;;;;4893260;29;20095;-72
2022/07/19 12:23:15;;;;;;;9.50;5.35;;;;;;;;;;4893075;29;20129;-72
2022/07/19 12:25:41;;;;;;;8.20;4.70;;;;;;;;;;4894151;29;20068;-76
2022/07/19 12:28:07;;;;;;;14.60;5.35;;;;;;;;;;4893306;29;20136;-72
2022/07/19 12:30:33;;;;;;;7.35;4.30;;;;;;;;;;4895251;29;20119;-75
2022/07/19 12:33:13;;;;;;;11.77;4.65;;;;;;;;;;4894249;29;20140;-74
2022/07/19 12:35:46;;;;;;;10.13;4.47;;;;;;;;;;4894535;29;20135;-75
2022/07/19 12:38:14;;;;;;;7.15;4.43;;;;;;;;;;4893186;29;20140;-73
2022/07/19 12:40:42;;;;;;;6.03;4.00;;;;;;;;;;4893494;29;20060;-74
2022/07/19 12:43:12;;;;;;;7.65;4.30;;;;;;;;;;4892146;29;20064;-73
2022/07/19 12:45:46;;;;;;;7.60;4.25;;;;;;;;;;4891997;29;20053;-73
2022/07/19 12:48:14;;;;;;;12.10;4.30;;;;;;;;;;4888541;29;20392;-73
2022/07/19 12:50:48;;;;;;;7.18;4.30;;;;;;;;;;4891395;29;20087;-72
2022/07/19 12:53:17;;;;;;;10.68;4.13;;;;;;;;;;4889555;29;20052;-76
2022/07/19 12:55:44;;;;;;;7.00;4.50;;;;;;;;;;4897066;29;20048;-75
2022/07/19 12:58:11;;;;;;;8.45;4.15;;;;;;;;;;4897016;29;20103;-76
2022/07/19 13:00:41;;;;;;;8.52;3.70;;;;;;;;;;4884957;29;20055;-78
2022/07/19 13:03:08;;;;;;;5.85;3.78;;;;;;;;;;4896364;29;20063;-73
2022/07/19 13:05:34;;;;;;;5.50;3.95;;;;;;;;;;4896032;29;20052;-73
2022/07/19 13:08:00;;;;;;;7.70;3.95;;;;;;;;;;4896239;29;20058;-79
2022/07/19 13:10:27;;;;;;;5.70;3.65;;;;;;;;;;4898513;29;20053;-75
2022/07/19 13:12:53;;;;;;;6.32;3.78;;;;;;;;;;4898229;29;20345;-80
2022/07/19 13:15:19;;;;;;;7.63;3.92;;;;;;;;;;4898880;29;20052;-76
2022/07/19 13:17:45;;;;;;;9.98;4.18;;;;;;;;;;4889239;29;20627;-76
2022/07/19 13:20:12;;;;;;;6.10;3.65;;;;;;;;;;4903871;29;20040;-79
2022/07/19 13:22:40;;;;;;;6.45;3.60;;;;;;;;;;4899233;29;20052;-77
2022/07/19 13:25:08;;;;;;;11.73;3.70;;;;;;;;;;4898200;29;20477;-76
2022/07/19 13:27:34;;;;;;;5.95;3.30;;;;;;;;;;4893287;29;20048;-75
2022/07/19 13:30:00;;;;;;;5.45;3.60;;;;;;;;;;4894916;29;20399;-77
2022/07/19 13:32:26;;;;;;;8.00;3.88;;;;;;;;;;4896302;29;20127;-75
2022/07/19 13:34:52;;;;;;;4.97;3.65;;;;;;;;;;4896562;29;20139;-74
2022/07/19 13:37:17;;;;;;;6.90;4.05;;;;;;;;;;4899356;29;20044;-76
2022/07/19 13:39:43;;;;;;;6.47;3.80;;;;;;;;;;4899150;29;20061;-75
2022/07/19 13:42:09;;;;;;;7.82;3.65;;;;;;;;;;4897320;29;20076;-75
2022/07/19 13:44:35;;;;;;;5.95;3.63;;;;;;;;;;4902774;29;20068;-75
2022/07/19 13:47:01;;;;;;;7.95;3.88;;;;;;;;;;4899926;29;20151;-76
2022/07/19 13:49:27;;;;;;;6.50;3.97;;;;;;;;;;4897862;29;20052;-74
2022/07/19 13:51:53;;;;;;;7.10;4.43;;;;;;;;;;4881307;29;20045;-76
2022/07/19 13:54:19;;;;;;;6.03;3.72;;;;;;;;;;4896117;29;20055;-75
2022/07/19 13:56:45;;;;;;;6.05;3.80;;;;;;;;;;4903634;29;20139;-75
2022/07/19 13:59:10;;;;;;;8.38;4.03;;;;;;;;;;4900283;29;20081;-78
2022/07/19 14:01:36;;;;;;;9.55;4.40;;;;;;;;;;4895291;29;20083;-75
2022/07/19 14:04:02;;;;;;;8.50;4.47;;;;;;;;;;4892753;29;20554;-76
2022/07/19 14:06:28;;;;;;;7.43;4.70;;;;;;;;;;4883659;29;20053;-73
2022/07/19 14:08:54;;;;;;;8.35;4.68;;;;;;;;;;4893199;29;20609;-76
2022/07/19 14:11:20;;;;;;;7.00;4.55;;;;;;;;;;4888596;29;20059;-75
2022/07/19 14:13:46;;;;;;;7.25;3.97;;;;;;;;;;4889417;29;20057;-78
2022/07/19 14:16:12;;;;;;;7.38;4.10;;;;;;;;;;4895989;29;20063;-76
2022/07/19 14:18:38;;;;;;;4.93;3.90;;;;;;;;;;4891785;29;20435;-76
2022/07/19 14:21:04;;;;;;;10.90;3.75;;;;;;;;;;4888922;29;20144;-76
2022/07/19 14:23:30;;;;;;;13.10;4.15;;;;;;;;;;4876833;29;20045;-76
2022/07/19 14:25:57;;;;;;;8.43;3.97;;;;;;;;;;4893974;29;20491;-78
2022/07/19 14:28:23;;;;;;;7.70;3.50;;;;;;;;;;4894790;29;20286;-73
2022/07/19 14:30:50;;;;;;;5.38;3.65;;;;;;;;;;4893187;29;20602;-74
2022/07/19 14:33:16;;;;;;;6.95;3.30;;;;;;;;;;4893487;29;20040;-78
2022/07/19 14:35:41;;;;;;;8.68;3.67;;;;;;;;;;4894473;29;20499;-74
2022/07/19 14:38:08;;;;;;;8.30;3.15;;;;;;;;;;4894274;29;20060;-76
2022/07/19 14:40:35;;;;;;;6.90;3.25;;;;;;;;;;4893169;29;20056;-73
2022/07/19 14:43:02;;;;;;;8.80;2.97;;;;;;;;;;4885520;29;20112;-75
2022/07/19 14:45:28;;;;;;;5.85;2.88;;;;;;;;;;4891100;29;20627;-76